Time;durP1;ratioP1;P1;durP2;ratioP2;P2;SDS_P1;SDS_P2;PMS_P1;PMS_P2;Temp;Humidity;BMP_temperature;BMP_pressure;BME280_temperature;BME280_humidity;BME280_pressure;Samples;Min_cycle;Max_cycle;Signal;HPM_P1;HPM_P2
2022/01/09 00:02:44;;;;;;;54.47;27.90;;;;;;;0.29;81.84;96936.94;10414421;28;20124;-58
2022/01/09 00:07:43;;;;;;;65.45;34.58;;;;;;;0.22;82.37;96918.09;10413439;28;20100;-58
2022/01/09 00:12:42;;;;;;;61.67;30.02;;;;;;;0.18;82.85;96929.03;10390925;28;20124;-58
2022/01/09 00:17:41;;;;;;;59.70;28.70;;;;;;;0.13;82.56;96905.09;10373906;28;20033;-58
2022/01/09 00:22:48;;;;;;;58.60;28.27;;;;;;;0.33;82.24;96928.53;10372718;28;20563;-58
2022/01/09 00:27:49;;;;;;;52.95;26.85;;;;;;;0.44;81.90;96925.44;10410012;28;20120;-58
2022/01/09 00:32:48;;;;;;;62.10;30.67;;;;;;;0.42;81.97;96916.00;10394694;28;20192;-58
2022/01/09 00:37:47;;;;;;;60.90;28.40;;;;;;;0.42;82.16;96916.88;10372382;28;20109;-58
2022/01/09 00:42:46;;;;;;;86.68;37.28;;;;;;;0.40;82.58;96915.97;10372741;28;20132;-58
2022/01/09 00:47:45;;;;;;;82.03;34.85;;;;;;;0.34;82.69;96918.38;10372204;28;20034;-58
2022/01/09 00:52:45;;;;;;;64.78;31.52;;;;;;;0.37;82.91;96905.69;10372092;28;20065;-58
2022/01/09 00:57:45;;;;;;;56.05;28.38;;;;;;;0.40;83.00;96917.66;10371994;28;20123;-58
2022/01/09 01:02:43;;;;;;;71.07;35.92;;;;;;;0.43;83.08;96921.16;10372145;28;20139;-58
2022/01/09 01:07:42;;;;;;;61.55;30.67;;;;;;;0.51;83.19;96925.59;10371849;28;20755;-59
2022/01/09 01:12:43;;;;;;;70.30;32.78;;;;;;;0.60;82.90;96916.47;10412820;28;20143;-58
2022/01/09 01:17:42;;;;;;;56.03;26.67;;;;;;;0.66;83.11;96906.44;10371294;28;20108;-58
2022/01/09 01:22:41;;;;;;;59.88;31.77;;;;;;;0.70;83.04;96899.69;10371195;28;20749;-58
2022/01/09 01:27:40;;;;;;;61.85;29.30;;;;;;;0.82;82.82;96891.44;10407695;28;20119;-59
2022/01/09 01:32:40;;;;;;;63.30;31.00;;;;;;;0.79;83.08;96889.69;10410255;28;20802;-58
2022/01/09 01:37:41;;;;;;;64.28;30.67;;;;;;;0.81;82.98;96884.63;10411398;28;20163;-58
2022/01/09 01:42:40;;;;;;;60.75;30.00;;;;;;;0.73;82.75;96853.78;10411641;28;20107;-58
2022/01/09 01:47:39;;;;;;;;;;;;;;;0.86;82.69;96873.66;10408695;28;20115;-58
2022/01/09 01:52:43;;;;;;;55.92;29.13;;;;;;;0.84;82.89;96869.38;10410955;28;19917;-58
2022/01/09 01:57:43;;;;;;;61.20;29.70;;;;;;;0.71;82.97;96860.56;10410616;28;20107;-58
2022/01/09 02:02:43;;;;;;;58.88;28.50;;;;;;;0.61;83.25;96873.94;10410631;28;20444;-58
2022/01/09 02:07:41;;;;;;;95.15;46.42;;;;;;;0.51;83.33;96856.69;10409125;28;20101;-58
2022/01/09 02:12:41;;;;;;;56.80;28.55;;;;;;;0.60;83.15;96850.09;10375677;28;20040;-58
2022/01/09 02:17:43;;;;;;;64.03;32.50;;;;;;;0.55;83.18;96840.63;10369684;28;20639;-58
2022/01/09 02:22:42;;;;;;;62.55;29.35;;;;;;;0.60;83.38;96827.13;10367452;28;20148;-58
2022/01/09 02:27:41;;;;;;;58.35;27.58;;;;;;;0.72;83.56;96818.88;10404476;28;20029;-58
2022/01/09 02:32:40;;;;;;;61.70;31.90;;;;;;;0.67;83.13;96825.56;10409007;28;20048;-58
2022/01/09 02:37:39;;;;;;;53.65;24.60;;;;;;;0.66;83.56;96813.63;10409105;28;20040;-58
2022/01/09 02:42:38;;;;;;;56.85;26.58;;;;;;;0.74;83.46;96812.13;10386603;28;20119;-58
2022/01/09 02:47:38;;;;;;;63.15;26.75;;;;;;;0.68;83.11;96789.84;10394915;28;20129;-58
2022/01/09 02:52:49;;;;;;;57.10;25.00;;;;;;;0.40;83.90;96801.13;10409115;28;20246;-58
2022/01/09 02:57:52;;;;;;;65.20;24.00;;;;;;;0.06;85.25;96794.38;10408913;28;20135;-58
2022/01/09 03:02:51;;;;;;;61.90;25.05;;;;;;;0.02;85.52;96793.41;10408906;28;20112;-58
2022/01/09 03:07:50;;;;;;;65.22;25.55;;;;;;;0.15;85.45;96791.19;10376755;28;20060;-58
2022/01/09 03:12:50;;;;;;;;;;;;;;;0.31;85.09;96774.53;10393608;28;20060;-58
2022/01/09 03:17:49;;;;;;;91.03;28.27;;;;;;;0.36;85.31;96768.72;10414739;28;20383;-58
2022/01/09 03:22:48;;;;;;;83.25;30.58;;;;;;;-0.49;86.05;96676.59;10414437;28;20075;-58
2022/01/09 03:27:50;;;;;;;;;;;;;;;0.18;85.73;96769.16;10414546;28;20899;-58
2022/01/09 03:32:51;;;;;;;66.35;24.63;;;;;;;0.15;85.77;96763.13;10415909;28;19987;-58
2022/01/09 03:37:51;;;;;;;72.13;26.25;;;;;;;0.26;86.18;96754.00;10422295;28;20074;-58
2022/01/09 03:42:51;;;;;;;78.13;28.48;;;;;;;0.32;85.95;96738.84;10392609;28;20072;-58
2022/01/09 03:47:51;;;;;;;76.18;28.13;;;;;;;0.46;85.78;96754.47;10381434;28;20071;-58
2022/01/09 03:52:50;;;;;;;81.28;31.50;;;;;;;0.50;85.50;96743.53;10380705;28;20457;-58
2022/01/09 03:57:50;;;;;;;94.13;34.10;;;;;;;0.55;85.89;96728.31;10381037;28;20104;-58
2022/01/09 04:02:50;;;;;;;88.70;33.30;;;;;;;0.62;85.62;96732.72;10380581;28;20064;-58
2022/01/09 04:07:50;;;;;;;72.40;30.58;;;;;;;0.61;85.67;96734.38;10380283;28;20076;-58
2022/01/09 04:12:51;;;;;;;85.97;30.52;;;;;;;0.67;85.64;96738.78;10416705;28;20082;-58
2022/01/09 04:17:55;;;;;;;98.38;31.73;;;;;;;0.53;85.73;96740.16;10421099;28;20064;-58
2022/01/09 04:22:54;;;;;;;151.45;35.13;;;;;;;0.53;85.64;96752.94;10420898;28;20064;-58
2022/01/09 04:27:53;;;;;;;;;;;;;;;0.39;86.24;96757.72;10420599;28;20064;-58
2022/01/09 04:32:52;;;;;;;85.50;32.00;;;;;;;0.42;86.13;96763.75;10421041;28;19960;-58
2022/01/09 04:37:53;;;;;;;115.07;35.20;;;;;;;0.45;86.20;96768.06;10419989;28;20036;-58
2022/01/09 04:42:58;;;;;;;182.13;30.70;;;;;;;0.31;86.52;96765.22;10416056;28;20508;-58
2022/01/09 04:48:02;;;;;;;98.53;30.90;;;;;;;0.11;86.78;96767.28;10419320;28;20547;-58
2022/01/09 04:53:07;;;;;;;141.20;32.22;;;;;;;-0.03;87.43;96778.84;10419685;28;20491;-58
2022/01/09 04:58:06;;;;;;;130.88;31.63;;;;;;;0.01;87.69;96778.97;10417619;28;20086;-58
2022/01/09 05:03:06;;;;;;;119.90;26.67;;;;;;;0.00;88.09;96782.31;10419396;28;20074;-58
2022/01/09 05:08:05;;;;;;;126.45;26.98;;;;;;;-0.33;88.64;96761.94;10418273;28;20064;-58
2022/01/09 05:13:04;;;;;;;216.77;30.85;;;;;;;-0.27;88.60;96771.47;10418209;28;20094;-58
2022/01/09 05:18:11;;;;;;;102.28;25.92;;;;;;;-0.55;88.96;96749.50;10419138;28;20038;-58
2022/01/09 05:23:10;;;;;;;150.75;29.27;;;;;;;-0.48;89.23;96762.44;10418660;28;20713;-58
2022/01/09 05:28:09;;;;;;;177.70;30.63;;;;;;;-0.42;89.27;96760.03;10401133;28;20643;-58
2022/01/09 05:33:08;;;;;;;130.80;35.10;;;;;;;-0.43;89.10;96762.53;10377238;28;20076;-58
2022/01/09 05:38:07;;;;;;;99.57;32.17;;;;;;;-0.30;89.60;96753.50;10376823;28;20075;-58
2022/01/09 05:43:06;;;;;;;84.05;27.55;;;;;;;-0.25;89.68;96747.72;10376575;28;20040;-58
2022/01/09 05:48:06;;;;;;;97.00;31.65;;;;;;;-0.24;89.35;96749.44;10376654;28;20056;-58
2022/01/09 05:53:05;;;;;;;90.57;28.23;;;;;;;-0.05;89.50;96745.66;10376353;28;20083;-58
2022/01/09 05:58:04;;;;;;;121.07;36.22;;;;;;;-0.19;89.49;96744.44;10389568;28;20076;-58
2022/01/09 06:03:03;;;;;;;141.23;30.75;;;;;;;-0.11;89.28;96744.63;10375771;28;20037;-58
2022/01/09 06:08:02;;;;;;;85.25;29.45;;;;;;;-0.05;89.42;96740.53;10376280;28;20403;-58
2022/01/09 06:13:01;;;;;;;82.78;27.60;;;;;;;0.07;89.31;96744.22;10385965;28;20079;-58
2022/01/09 06:18:00;;;;;;;90.03;30.05;;;;;;;0.15;89.72;96737.63;10416079;28;20033;-58
2022/01/09 06:22:59;;;;;;;89.82;28.33;;;;;;;0.36;89.39;96744.88;10432269;28;20036;-58
2022/01/09 06:27:57;;;;;;;123.78;37.15;;;;;;;0.56;89.30;96745.31;10380938;28;20036;-58
2022/01/09 06:32:56;;;;;;;124.38;29.35;;;;;;;0.64;88.99;96742.13;10373526;28;20064;-58
2022/01/09 06:37:55;;;;;;;97.50;27.25;;;;;;;0.78;89.02;96747.53;10354876;28;20037;-58
2022/01/09 06:42:54;;;;;;;73.80;25.17;;;;;;;0.74;88.93;96743.16;10374321;28;20060;-58
2022/01/09 06:47:55;;;;;;;115.07;39.20;;;;;;;0.75;89.16;96731.25;10374231;28;20029;-58
2022/01/09 06:52:54;;;;;;;106.68;40.65;;;;;;;0.71;88.89;96737.13;10373505;28;20075;-58
2022/01/09 06:57:56;;;;;;;297.55;111.97;;;;;;;0.77;89.02;96735.56;10369189;28;20041;-59
2022/01/09 07:02:55;;;;;;;122.20;41.78;;;;;;;0.79;88.60;96754.34;10372446;28;20456;-58
2022/01/09 07:07:54;;;;;;;128.27;37.50;;;;;;;0.43;88.79;96737.41;10350915;28;20484;-58
2022/01/09 07:12:53;;;;;;;154.10;47.13;;;;;;;0.47;88.78;96739.22;10332551;28;20411;-58
2022/01/09 07:17:52;;;;;;;133.98;35.22;;;;;;;0.55;88.83;96741.06;10361745;28;20067;-58
2022/01/09 07:22:51;;;;;;;107.57;31.13;;;;;;;0.53;88.85;96750.38;10373573;28;20044;-58
2022/01/09 07:27:50;;;;;;;124.78;31.63;;;;;;;0.56;89.05;96760.66;10350206;28;20024;-58
2022/01/09 07:32:49;;;;;;;108.15;30.80;;;;;;;0.58;89.14;96753.88;10371617;28;20055;-58
2022/01/09 07:37:48;;;;;;;62.30;25.08;;;;;;;0.52;89.06;96763.94;10373031;28;20701;-58
2022/01/09 07:42:48;;;;;;;94.82;33.90;;;;;;;0.12;89.08;96738.38;10372763;28;20065;-58
2022/01/09 07:47:47;;;;;;;85.28;25.63;;;;;;;0.41;89.13;96767.13;10372234;28;20060;-58
2022/01/09 07:52:46;;;;;;;91.03;26.02;;;;;;;0.53;89.27;96771.66;10371811;28;20116;-58
2022/01/09 07:57:45;;;;;;;80.97;28.08;;;;;;;0.67;89.33;96751.53;10351083;28;20880;-58
2022/01/09 08:02:44;;;;;;;;;;;;;;;1.00;89.79;96736.03;10313075;28;20869;-58
2022/01/09 08:07:45;;;;;;;75.43;26.20;;;;;;;1.49;89.63;96736.13;10331041;28;19975;-58
2022/01/09 08:12:44;;;;;;;58.53;23.60;;;;;;;1.87;89.23;96729.09;10330671;28;20073;-58
2022/01/09 08:17:45;;;;;;;64.47;24.92;;;;;;;2.05;88.40;96720.84;10331141;28;20030;-58
2022/01/09 08:22:44;;;;;;;72.82;35.13;;;;;;;2.23;87.21;96724.53;10335961;28;20088;-58
2022/01/09 08:27:44;;;;;;;55.45;23.10;;;;;;;2.37;86.85;96720.47;10337638;28;20096;-58
2022/01/09 08:32:43;;;;;;;53.55;24.67;;;;;;;2.46;85.95;96701.81;10337672;28;20081;-58
2022/01/09 08:37:43;;;;;;;51.63;21.65;;;;;;;2.48;84.83;96703.56;10338926;28;20107;-58
2022/01/09 08:42:42;;;;;;;51.47;19.58;;;;;;;2.40;85.01;96702.59;10336901;28;20108;-58
2022/01/09 08:47:43;;;;;;;51.75;23.10;;;;;;;2.29;84.90;96688.78;10337620;28;20091;-58
2022/01/09 08:52:41;;;;;;;90.22;41.42;;;;;;;2.13;84.69;96685.13;10338361;28;20065;-58
2022/01/09 08:57:41;;;;;;;115.55;50.30;;;;;;;1.97;84.75;96681.47;10336450;28;20037;-58
2022/01/09 09:02:41;;;;;;;79.15;35.17;;;;;;;1.87;84.58;96671.97;10336369;28;20068;-58
2022/01/09 09:07:40;;;;;;;171.77;81.20;;;;;;;1.82;84.69;96671.88;10337763;28;20104;-58
2022/01/09 09:12:39;;;;;;;120.25;47.15;;;;;;;1.73;84.53;96659.81;10336031;28;20048;-58
2022/01/09 09:17:38;;;;;;;;;;;;;;;1.67;85.11;96662.28;10336356;28;20069;-58
2022/01/09 09:22:37;;;;;;;92.63;39.17;;;;;;;1.73;85.44;96647.00;10337258;28;19923;-59
2022/01/09 09:27:37;;;;;;;71.78;30.85;;;;;;;1.69;85.33;96629.03;10318268;28;20145;-58
2022/01/09 09:32:37;;;;;;;89.43;43.67;;;;;;;1.73;85.72;96602.69;10317869;28;20124;-58
2022/01/09 09:37:36;;;;;;;94.20;45.95;;;;;;;1.68;85.71;96597.50;10329289;28;20112;-58
2022/01/09 09:42:35;;;;;;;78.32;34.30;;;;;;;1.84;85.51;96575.56;10329773;28;20679;-58
2022/01/09 09:47:36;;;;;;;79.43;34.08;;;;;;;2.14;85.10;96582.81;10329000;28;20124;-58
2022/01/09 09:52:35;;;;;;;91.90;42.78;;;;;;;2.37;84.17;96579.66;10329257;28;20072;-58
2022/01/09 09:57:34;;;;;;;79.82;36.33;;;;;;;2.59;83.62;96566.28;10325455;28;20050;-59
2022/01/09 10:02:47;;;;;;;;;;;;;;;2.52;83.05;96561.06;10325966;28;20137;-58
2022/01/09 10:07:47;;;;;;;77.50;38.97;;;;;;;2.86;82.12;96556.28;10325792;28;20007;-58
2022/01/09 10:12:47;;;;;;;78.38;39.30;;;;;;;2.94;82.11;96557.25;10328757;28;20116;-58
2022/01/09 10:17:50;;;;;;;63.85;33.83;;;;;;;3.34;81.19;96542.19;10324221;28;20668;-58
2022/01/09 10:22:51;;;;;;;48.17;25.70;;;;;;;3.33;80.54;96541.34;10323001;28;20128;-58
2022/01/09 10:27:55;;;;;;;47.85;23.17;;;;;;;3.79;79.41;96541.66;10327410;28;20124;-58
2022/01/09 10:32:57;;;;;;;43.50;21.48;;;;;;;3.72;78.34;96539.03;10324584;28;20132;-58
2022/01/09 10:38:13;;;;;;;42.88;21.52;;;;;;;3.91;78.31;96529.75;10324414;28;20105;-58
2022/01/09 10:43:16;;;;;;;125.47;55.78;;;;;;;3.96;77.23;96508.38;10324340;28;20076;-58
2022/01/09 10:48:20;;;;;;;60.63;29.05;;;;;;;3.89;77.24;96508.34;10327376;28;20128;-58
2022/01/09 10:53:33;;;;;;;46.72;24.48;;;;;;;4.06;76.65;96511.88;10326954;28;20151;-58
2022/01/09 10:58:44;;;;;;;59.47;29.38;;;;;;;4.42;75.24;96508.56;10373553;28;20174;-58
2022/01/09 11:03:46;;;;;;;44.35;22.13;;;;;;;4.55;75.33;96499.19;10405887;28;20202;-58
2022/01/09 11:08:45;;;;;;;39.35;20.38;;;;;;;4.76;74.42;96493.25;10408507;28;20845;-58
2022/01/09 11:13:45;;;;;;;;;;;;;;;4.39;74.29;96494.88;10394750;28;20123;-58
2022/01/09 11:18:45;;;;;;;63.35;30.33;;;;;;;3.77;76.01;96497.16;10380052;28;20040;-58
2022/01/09 11:23:59;;;;;;;66.57;31.98;;;;;;;3.93;76.06;96492.97;10377588;28;20120;-58
2022/01/09 11:29:00;;;;;;;63.33;30.23;;;;;;;3.95;76.49;96501.53;10390069;28;20134;-61
2022/01/09 11:34:30;;;;;;;45.63;24.25;;;;;;;4.34;76.35;96499.09;10381493;28;20803;-59
2022/01/09 11:39:35;;;;;;;59.35;32.10;;;;;;;4.45;75.60;96493.16;10406212;28;20547;-58
2022/01/09 11:44:43;;;;;;;55.80;28.83;;;;;;;4.67;75.38;96499.22;10407661;28;20112;-58
2022/01/09 11:49:52;;;;;;;41.88;21.35;;;;;;;4.75;75.37;96495.78;10405309;28;20770;-58
2022/01/09 11:54:56;;;;;;;53.27;28.00;;;;;;;4.94;74.98;96489.84;10407857;28;20111;-58
2022/01/09 11:59:55;;;;;;;45.10;23.85;;;;;;;4.98;74.28;96504.41;10406412;28;20112;-58
2022/01/09 12:04:56;;;;;;;49.15;24.42;;;;;;;5.07;74.04;96489.00;10388822;28;20140;-58
2022/01/09 12:09:55;;;;;;;44.80;25.13;;;;;;;5.13;73.96;96493.28;10386447;28;20112;-58
2022/01/09 12:20:04;;;;;;;49.03;27.90;;;;;;;5.27;73.63;96475.28;10413937;28;20123;-58
2022/01/09 12:25:03;;;;;;;55.05;30.25;;;;;;;5.30;73.69;96476.13;10412886;28;20570;-58
2022/01/09 12:30:03;;;;;;;50.75;25.42;;;;;;;5.32;73.22;96479.56;10410545;28;20742;-58
2022/01/09 12:35:32;;;;;;;46.47;24.27;;;;;;;5.08;72.97;96462.41;10414153;28;20116;-58
2022/01/09 12:40:33;;;;;;;45.58;22.98;;;;;;;5.01;73.46;96465.84;10408866;28;20131;-58
2022/01/09 12:45:36;;;;;;;46.28;24.92;;;;;;;4.98;73.88;96457.28;10412523;28;20123;-58
2022/01/09 12:50:37;;;;;;;48.08;26.77;;;;;;;5.02;73.77;96461.59;10413633;28;20144;-58
2022/01/09 12:55:52;;;;;;;53.83;29.90;;;;;;;4.89;74.00;96463.25;10391276;28;20508;-58
2022/01/09 13:00:52;;;;;;;34.78;18.15;;;;;;;4.55;74.99;96452.94;10401501;28;20154;-58
2022/01/09 13:06:00;;;;;;;41.88;24.42;;;;;;;4.33;75.65;96461.44;10408935;28;20136;-58
2022/01/09 13:11:05;;;;;;;44.40;22.65;;;;;;;4.20;76.33;96453.72;10397326;28;20551;-58
2022/01/09 13:16:15;;;;;;;42.55;23.33;;;;;;;4.16;77.07;96459.69;10385130;28;20104;-58
2022/01/09 13:21:25;;;;;;;39.15;20.80;;;;;;;4.06;78.08;96458.81;10388266;28;20132;-58
2022/01/09 13:26:26;;;;;;;45.15;25.55;;;;;;;4.16;77.94;96449.41;10392612;28;20104;-58
2022/01/09 13:31:32;;;;;;;43.63;22.60;;;;;;;4.29;77.83;96450.28;10381183;28;20136;-58
2022/01/09 13:36:39;;;;;;;46.00;24.52;;;;;;;4.46;77.13;96447.78;10368499;28;20544;-58
2022/01/09 13:41:42;;;;;;;54.92;28.90;;;;;;;4.53;76.72;96446.94;10376235;28;20139;-58
2022/01/09 13:46:44;;;;;;;67.68;39.70;;;;;;;4.69;76.60;96440.97;10393403;28;20116;-58
2022/01/09 13:51:48;;;;;;;61.17;34.78;;;;;;;4.67;76.52;96441.81;10395979;28;20103;-58
2022/01/09 13:57:02;;;;;;;56.85;31.63;;;;;;;4.70;76.53;96432.41;10406135;28;20116;-58
2022/01/09 14:02:02;;;;;;;38.00;21.50;;;;;;;4.66;76.49;96428.09;10395161;28;20147;-58
2022/01/09 14:07:06;;;;;;;51.05;25.90;;;;;;;4.77;76.29;96419.56;10410008;28;20120;-58
2022/01/09 14:12:13;;;;;;;47.90;28.38;;;;;;;5.00;75.31;96428.16;10410128;28;20068;-58
2022/01/09 14:17:33;;;;;;;51.55;28.65;;;;;;;5.08;75.03;96421.28;10409391;28;20103;-58
2022/01/09 14:22:36;;;;;;;;;;;;;;;5.13;75.13;96421.28;10408506;28;20133;-58
2022/01/09 14:27:38;;;;;;;58.83;32.78;;;;;;;5.09;74.56;96415.28;10395500;28;19956;-58
2022/01/09 14:32:37;;;;;;;63.67;35.55;;;;;;;5.05;74.80;96412.72;10369744;28;20944;-58
2022/01/09 14:37:46;;;;;;;64.35;37.53;;;;;;;4.94;74.66;96402.44;10366954;28;20845;-57
2022/01/09 14:42:45;;;;;;;53.00;30.65;;;;;;;4.83;75.13;96411.81;10371224;28;20551;-58
2022/01/09 14:47:44;;;;;;;57.83;34.05;;;;;;;4.64;75.83;96405.84;10394293;28;20042;-58
2022/01/09 14:52:43;;;;;;;;;;;;;;;4.53;76.46;96407.56;10391202;28;20618;-58
2022/01/09 14:57:42;;;;;;;55.38;31.58;;;;;;;4.24;77.11;96406.66;10393669;28;20018;-58
2022/01/09 15:02:42;;;;;;;50.72;32.65;;;;;;;4.03;78.24;96411.72;10382628;28;20028;-58
2022/01/09 15:07:41;;;;;;;48.05;26.75;;;;;;;3.93;78.50;96402.28;10378840;28;20068;-58
2022/01/09 15:12:40;;;;;;;53.10;30.08;;;;;;;3.91;78.49;96409.13;10406292;28;20116;-58
2022/01/09 15:17:39;;;;;;;58.70;31.95;;;;;;;3.96;78.93;96404.84;10406494;28;20039;-58
2022/01/09 15:22:38;;;;;;;52.92;28.73;;;;;;;3.91;79.07;96409.97;10406442;28;20096;-58
2022/01/09 15:27:37;;;;;;;51.03;29.27;;;;;;;3.73;79.85;96400.53;10391243;28;20677;-57
2022/01/09 15:32:36;;;;;;;73.53;37.45;;;;;;;3.37;81.08;96384.09;10396303;28;20769;-58
2022/01/09 15:37:35;;;;;;;53.85;27.48;;;;;;;3.39;81.57;96410.59;10373544;28;20135;-58
2022/01/09 15:42:34;;;;;;;44.47;24.33;;;;;;;3.16;82.72;96405.34;10373917;28;20149;-58
2022/01/09 15:47:33;;;;;;;44.72;23.55;;;;;;;3.10;83.01;96415.56;10372807;28;20033;-58
2022/01/09 15:52:32;;;;;;;50.35;26.45;;;;;;;3.25;82.03;96427.63;10373628;28;20124;-58
2022/01/09 15:57:31;;;;;;;47.05;22.13;;;;;;;3.15;82.99;96429.25;10376970;28;20123;-58
2022/01/09 16:02:32;;;;;;;69.38;37.42;;;;;;;3.25;82.71;96429.31;10386278;28;20051;-58
2022/01/09 16:07:32;;;;;;;75.53;37.75;;;;;;;3.18;82.37;96424.16;10383578;28;20115;-58
2022/01/09 16:12:31;;;;;;;106.85;54.15;;;;;;;3.10;82.99;96423.25;10402097;28;20543;-58
2022/01/09 16:17:30;;;;;;;55.00;30.98;;;;;;;3.11;82.40;96407.03;10397681;28;20115;-58
2022/01/09 16:22:29;;;;;;;51.88;27.42;;;;;;;3.31;82.29;96419.97;10414553;28;20103;-58
2022/01/09 16:27:28;;;;;;;73.15;39.65;;;;;;;3.39;81.61;96417.44;10406135;28;20093;-57
2022/01/09 16:32:27;;;;;;;64.07;36.25;;;;;;;3.38;81.62;96419.16;10400550;28;20109;-58
2022/01/09 16:37:27;;;;;;;71.40;40.47;;;;;;;3.40;81.75;96425.16;10413934;28;20774;-58
2022/01/09 16:42:26;;;;;;;62.40;34.28;;;;;;;3.46;81.71;96428.59;10407094;28;20532;-58
2022/01/09 16:47:26;;;;;;;64.35;35.30;;;;;;;3.58;81.88;96428.66;10394470;28;20125;-57
2022/01/09 16:52:25;;;;;;;51.20;30.17;;;;;;;3.67;81.33;96426.13;10399306;28;20123;-58
2022/01/09 16:57:24;;;;;;;60.00;34.35;;;;;;;3.71;81.10;96430.44;10386272;28;20119;-58
2022/01/09 17:02:23;;;;;;;42.88;22.55;;;;;;;3.54;81.41;96419.22;10396879;28;20036;-58
2022/01/09 17:07:22;;;;;;;;;;;;;;;3.36;81.52;96420.00;10372522;28;20131;-58
2022/01/09 17:12:21;;;;;;;63.75;35.55;;;;;;;3.41;82.02;96415.75;10401110;28;19981;-58
2022/01/09 17:17:21;;;;;;;44.60;24.20;;;;;;;3.47;81.59;96417.47;10403054;28;20024;-58
2022/01/09 17:22:21;;;;;;;56.55;33.63;;;;;;;3.43;81.65;96426.88;10411843;28;20492;-58
2022/01/09 17:27:20;;;;;;;55.63;30.02;;;;;;;3.42;82.14;96428.59;10403650;28;20127;-60
2022/01/09 17:32:19;;;;;;;51.60;28.83;;;;;;;3.33;82.35;96423.41;10411795;28;20424;-58
2022/01/09 17:37:18;;;;;;;44.22;23.35;;;;;;;3.25;82.73;96430.19;10411951;28;20124;-58
2022/01/09 17:42:22;;;;;;;63.60;36.03;;;;;;;3.28;82.54;96414.81;10411531;28;20112;-58
2022/01/09 17:47:21;;;;;;;59.85;32.35;;;;;;;3.25;82.68;96412.22;10408804;28;20108;-58
2022/01/09 17:52:20;;;;;;;61.88;33.85;;;;;;;3.15;82.84;96402.78;10408876;28;20098;-58
2022/01/09 17:57:19;;;;;;;56.00;30.88;;;;;;;3.17;82.65;96406.22;10410969;28;20032;-58
2022/01/09 18:02:19;;;;;;;48.75;25.73;;;;;;;3.00;83.69;96418.91;10410290;28;20106;-58
2022/01/09 18:07:18;;;;;;;48.38;25.42;;;;;;;2.86;84.37;96411.09;10410904;28;20108;-58
2022/01/09 18:12:17;;;;;;;58.58;32.13;;;;;;;2.81;84.27;96398.25;10409925;28;20135;-58
2022/01/09 18:17:16;;;;;;;60.42;30.42;;;;;;;2.99;83.81;96399.25;10385037;28;20143;-58
2022/01/09 18:22:16;;;;;;;55.80;28.75;;;;;;;3.10;83.73;96407.03;10402161;28;20036;-58
2022/01/09 18:27:15;;;;;;;56.90;29.88;;;;;;;3.22;83.90;96399.41;10400833;28;20123;-58
2022/01/09 18:32:14;;;;;;;53.33;25.73;;;;;;;3.17;83.81;96411.34;10409727;28;20908;-58
2022/01/09 18:37:14;;;;;;;70.32;37.70;;;;;;;2.94;83.74;96368.47;10396503;28;20131;-58
2022/01/09 18:42:13;;;;;;;63.72;36.50;;;;;;;3.13;83.73;96404.47;10396135;28;20123;-58
2022/01/09 18:47:12;;;;;;;64.60;32.72;;;;;;;3.16;83.87;96415.59;10407981;28;20129;-58
2022/01/09 18:52:11;;;;;;;56.58;27.45;;;;;;;3.14;83.70;96426.69;10391640;28;20042;-58
2022/01/09 18:57:12;;;;;;;46.65;21.67;;;;;;;3.08;84.07;96416.41;10401457;28;20072;-58
2022/01/09 19:02:11;;;;;;;57.50;29.00;;;;;;;3.05;84.33;96424.06;10400416;28;20718;-58
2022/01/09 19:07:10;;;;;;;58.05;28.83;;;;;;;2.87;84.41;96425.66;10403400;28;20631;-59
2022/01/09 19:12:11;;;;;;;100.72;48.35;;;;;;;2.78;85.19;96428.13;10408267;28;20115;-58
2022/01/09 19:17:10;;;;;;;80.57;40.88;;;;;;;2.67;85.73;96427.19;10408752;28;20124;-58
2022/01/09 19:22:09;;;;;;;48.85;22.77;;;;;;;2.67;86.25;96430.59;10398645;28;20043;-58
2022/01/09 19:27:08;;;;;;;56.60;25.75;;;;;;;2.68;85.88;96439.16;10400265;28;20086;-58
2022/01/09 19:32:07;;;;;;;53.85;27.05;;;;;;;2.61;86.24;96434.84;10391365;28;20136;-58
2022/01/09 19:37:06;;;;;;;45.28;21.15;;;;;;;2.53;86.59;96429.63;10407801;28;20076;-58
2022/01/09 19:42:05;;;;;;;50.15;24.30;;;;;;;2.54;86.58;96429.66;10400799;28;20079;-58
2022/01/09 19:47:06;;;;;;;60.17;31.38;;;;;;;2.63;86.94;96413.50;10401755;28;20037;-58
2022/01/09 19:52:08;;;;;;;62.72;34.22;;;;;;;2.38;86.43;96362.06;10405204;28;20127;-58
2022/01/09 19:57:13;;;;;;;73.65;37.30;;;;;;;2.69;86.68;96402.44;10399965;28;20120;-58
2022/01/09 20:02:12;;;;;;;72.43;34.50;;;;;;;2.80;86.17;96395.72;10407098;28;20111;-58
2022/01/09 20:07:11;;;;;;;66.50;31.42;;;;;;;2.68;86.74;96385.38;10405700;28;20064;-58
2022/01/09 20:12:10;;;;;;;62.85;29.95;;;;;;;2.65;86.79;96377.66;10397987;28;20033;-58
2022/01/09 20:17:09;;;;;;;62.80;27.35;;;;;;;2.74;86.49;96385.41;10387405;28;20127;-58
2022/01/09 20:22:08;;;;;;;62.63;29.33;;;;;;;2.80;86.80;96385.47;10408472;28;20040;-58
2022/01/09 20:27:08;;;;;;;49.15;23.50;;;;;;;2.79;86.68;96379.50;10406891;28;20123;-58
2022/01/09 20:32:07;;;;;;;56.22;26.77;;;;;;;2.72;87.28;96371.72;10414350;28;20127;-58
2022/01/09 20:37:06;;;;;;;54.35;26.35;;;;;;;2.73;86.52;96374.31;10399082;28;20787;-58
2022/01/09 20:42:06;;;;;;;49.85;24.05;;;;;;;2.79;86.47;96381.16;10384752;28;21064;-58
2022/01/09 20:47:06;;;;;;;51.30;24.15;;;;;;;2.80;86.35;96381.19;10389789;28;20594;-58
2022/01/09 20:52:05;;;;;;;48.63;22.65;;;;;;;2.85;86.13;96365.84;10396501;28;20076;-58
2022/01/09 20:57:04;;;;;;;45.08;23.48;;;;;;;2.82;86.54;96363.28;10393386;28;20128;-58
2022/01/09 21:02:03;;;;;;;44.13;19.50;;;;;;;2.83;86.59;96372.66;10394614;28;20112;-58
2022/01/09 21:07:02;;;;;;;45.00;20.50;;;;;;;2.90;85.96;96371.84;10400221;28;20124;-58
2022/01/09 21:12:02;;;;;;;42.17;20.90;;;;;;;2.85;86.30;96373.53;10401146;28;20466;-58
2022/01/09 21:17:04;;;;;;;59.33;30.88;;;;;;;2.95;86.20;96361.63;10397210;28;20131;-58
2022/01/09 21:22:03;;;;;;;53.30;28.30;;;;;;;2.95;86.24;96359.94;10401375;28;20119;-58
2022/01/09 21:27:02;;;;;;;57.55;33.63;;;;;;;2.80;86.32;96349.59;10397201;28;20051;-58
2022/01/09 21:32:03;;;;;;;46.85;24.27;;;;;;;2.67;86.98;96364.00;10411766;28;20131;-58
2022/01/09 21:37:03;;;;;;;36.50;20.60;;;;;;;2.51;87.06;96363.06;10412873;28;20143;-58
2022/01/09 21:42:03;;;;;;;32.42;16.40;;;;;;;2.43;87.57;96367.25;10411605;28;20132;-59
2022/01/09 21:47:02;;;;;;;27.88;14.90;;;;;;;2.32;87.64;96364.56;10409718;28;20139;-58
2022/01/09 21:52:03;;;;;;;32.22;15.45;;;;;;;2.30;87.67;96367.97;10411381;28;20103;-58
2022/01/09 21:57:02;;;;;;;23.60;11.43;;;;;;;2.07;88.53;96367.78;10410623;28;20115;-58
2022/01/09 22:02:03;;;;;;;23.55;12.63;;;;;;;1.91;89.02;96364.19;10410960;28;20108;-58
2022/01/09 22:07:03;;;;;;;31.42;14.48;;;;;;;1.91;88.74;96370.16;10404932;28;20135;-59
2022/01/09 22:12:04;;;;;;;35.92;16.33;;;;;;;1.86;88.94;96370.97;10409374;28;20132;-58
2022/01/09 22:17:05;;;;;;;42.17;20.27;;;;;;;1.80;89.65;96369.19;10405860;28;20075;-58
2022/01/09 22:22:04;;;;;;;31.00;15.38;;;;;;;1.81;89.69;96368.38;10407187;28;20186;-58
2022/01/09 22:27:03;;;;;;;;;;;;;;;1.74;90.51;96366.59;10401446;28;20064;-59
2022/01/09 22:32:02;;;;;;;70.95;30.88;;;;;;;1.77;89.79;96366.59;10409806;28;19920;-59
2022/01/09 22:37:03;;;;;;;30.13;15.52;;;;;;;1.85;89.88;96379.47;10405962;28;20164;-58
2022/01/09 22:42:03;;;;;;;30.55;15.50;;;;;;;1.88;90.18;96382.06;10407307;28;20129;-59
2022/01/09 22:47:02;;;;;;;31.45;15.80;;;;;;;1.91;90.11;96382.09;10390712;28;20147;-59
2022/01/09 22:52:02;;;;;;;27.15;13.35;;;;;;;1.93;89.93;96382.97;10408598;28;20103;-59
2022/01/09 22:57:02;;;;;;;26.80;13.75;;;;;;;1.94;89.90;96379.56;10408775;28;20154;-59
2022/01/09 23:02:01;;;;;;;32.25;16.23;;;;;;;1.83;89.81;96381.16;10405594;28;20115;-59
2022/01/09 23:07:00;;;;;;;31.45;15.13;;;;;;;1.80;90.31;96370.91;10403621;28;20127;-58
2022/01/09 23:12:00;;;;;;;26.92;13.73;;;;;;;1.73;89.90;96360.59;10406008;28;20111;-58